createdAt,value
2022-10-26T00:00:51.023Z,8.13
2022-10-26T00:03:17.522Z,8.16
2022-10-26T00:05:44.867Z,8.18
2022-10-26T00:08:11.691Z,8.10
2022-10-26T00:10:38.881Z,8.09
2022-10-26T00:13:05.843Z,7.92
2022-10-26T00:15:32.220Z,8.01
2022-10-26T00:17:58.545Z,7.99
2022-10-26T00:20:26.001Z,8.16
2022-10-26T00:22:52.633Z,8.14
2022-10-26T00:25:18.952Z,7.95
2022-10-26T00:27:46.448Z,8.06
2022-10-26T00:30:12.979Z,8.00
2022-10-26T00:35:21.439Z,7.99
2022-10-26T00:37:53.821Z,8.09
2022-10-26T00:40:22.368Z,8.11
2022-10-26T00:42:48.982Z,8.02
2022-10-26T00:45:19.275Z,8.00
2022-10-26T00:47:49.012Z,7.97
2022-10-26T00:50:19.259Z,7.86
2022-10-26T00:52:45.698Z,8.08
2022-10-26T00:55:12.260Z,7.95
2022-10-26T00:57:39.138Z,7.96
2022-10-26T01:00:07.940Z,7.84
2022-10-26T01:02:34.432Z,8.02
2022-10-26T01:05:03.017Z,7.91
2022-10-26T01:07:29.410Z,7.79
2022-10-26T01:09:55.817Z,7.93
2022-10-26T01:12:22.131Z,7.99
2022-10-26T01:14:48.616Z,8.00
2022-10-26T01:17:38.279Z,7.96
2022-10-26T01:20:23.404Z,7.92
2022-10-26T01:22:50.801Z,7.86
2022-10-26T01:25:35.879Z,7.90
2022-10-26T01:28:18.966Z,7.85
2022-10-26T01:30:46.755Z,7.80
2022-10-26T01:33:21.593Z,7.65
2022-10-26T01:36:03.931Z,7.77
2022-10-26T01:38:45.778Z,7.82
2022-10-26T01:41:16.349Z,7.84
2022-10-26T01:43:46.707Z,7.59
2022-10-26T01:46:13.728Z,7.73
2022-10-26T01:48:41.745Z,7.77
2022-10-26T01:51:09.721Z,7.68
2022-10-26T01:53:36.351Z,7.74
2022-10-26T01:56:03.288Z,7.73
2022-10-26T01:58:38.805Z,7.74
2022-10-26T02:01:27.834Z,7.62
2022-10-26T02:04:20.268Z,7.70
2022-10-26T02:07:22.070Z,7.78
2022-10-26T02:09:56.792Z,7.65
2022-10-26T02:12:29.434Z,7.66
2022-10-26T02:15:03.951Z,7.47
2022-10-26T02:17:38.492Z,7.61
2022-10-26T02:20:07.942Z,7.67
2022-10-26T02:22:34.495Z,7.74
2022-10-26T02:25:04.641Z,7.73
2022-10-26T02:27:33.078Z,7.77
2022-10-26T02:30:00.418Z,7.84
2022-10-26T02:32:30.655Z,7.69
2022-10-26T02:34:58.636Z,7.78
2022-10-26T02:37:26.588Z,7.71
2022-10-26T02:39:54.325Z,7.85
2022-10-26T02:42:22.643Z,7.93
2022-10-26T02:44:52.069Z,7.88
2022-10-26T02:47:19.692Z,7.90
2022-10-26T02:49:46.033Z,7.95
2022-10-26T02:52:17.668Z,7.94
2022-10-26T02:54:46.974Z,7.85
2022-10-26T02:57:19.220Z,7.92
2022-10-26T02:59:47.669Z,7.88
2022-10-26T03:02:16.272Z,7.89
2022-10-26T03:04:42.619Z,7.92
2022-10-26T03:07:09.254Z,7.97
2022-10-26T03:09:35.568Z,8.04
2022-10-26T03:12:01.984Z,8.05
2022-10-26T03:14:28.296Z,8.09
2022-10-26T03:16:54.707Z,8.06
2022-10-26T03:19:21.129Z,8.06
2022-10-26T03:21:50.475Z,8.14
2022-10-26T03:24:16.788Z,8.17
2022-10-26T03:26:43.110Z,8.14
2022-10-26T03:29:12.758Z,8.10
2022-10-26T03:31:39.106Z,8.20
2022-10-26T03:34:05.536Z,8.23
2022-10-26T03:36:32.942Z,8.22
2022-10-26T03:38:59.336Z,8.21
2022-10-26T03:41:26.117Z,8.16
2022-10-26T03:43:52.523Z,8.27
2022-10-26T03:46:18.873Z,8.07
2022-10-26T03:48:50.332Z,8.25
2022-10-26T03:51:16.655Z,8.17
2022-10-26T03:53:43.024Z,8.20
2022-10-26T03:56:10.688Z,8.05
2022-10-26T03:58:37.109Z,8.04
2022-10-26T04:01:03.546Z,8.26
2022-10-26T04:03:29.920Z,8.30
2022-10-26T04:05:58.065Z,8.36
2022-10-26T04:08:24.732Z,8.41
2022-10-26T04:10:54.218Z,8.37
2022-10-26T04:13:20.525Z,8.35
2022-10-26T04:15:46.969Z,8.35
2022-10-26T04:18:13.785Z,8.44
2022-10-26T04:20:44.582Z,8.37
2022-10-26T04:23:12.718Z,8.49
2022-10-26T04:25:39.217Z,8.51
2022-10-26T04:28:06.412Z,8.49
2022-10-26T04:30:33.429Z,8.46
2022-10-26T04:32:59.845Z,8.51
2022-10-26T04:35:26.518Z,8.50
2022-10-26T04:37:57.044Z,8.56
2022-10-26T04:40:23.436Z,8.50
2022-10-26T04:42:50.116Z,8.57
2022-10-26T04:45:16.893Z,8.58
2022-10-26T04:47:43.325Z,8.44
2022-10-26T04:50:10.940Z,8.53
2022-10-26T04:52:37.668Z,8.54
2022-10-26T04:55:07.718Z,8.51
2022-10-26T04:57:34.449Z,8.52
2022-10-26T05:00:01.150Z,8.41
2022-10-26T05:02:28.431Z,8.49
2022-10-26T05:04:55.108Z,8.57
2022-10-26T05:07:21.502Z,8.61
2022-10-26T05:09:47.909Z,8.65
2022-10-26T05:12:14.224Z,8.69
2022-10-26T05:14:40.575Z,8.66
2022-10-26T05:17:06.900Z,8.62
2022-10-26T05:19:33.252Z,8.71
2022-10-26T05:21:59.669Z,8.73
2022-10-26T05:24:28.067Z,8.71
2022-10-26T05:26:54.377Z,8.77
2022-10-26T05:29:20.769Z,8.73
2022-10-26T05:31:47.094Z,8.73
2022-10-26T05:34:13.580Z,8.77
2022-10-26T05:36:39.947Z,8.80
2022-10-26T05:39:12.576Z,8.81
2022-10-26T05:41:38.876Z,8.81
2022-10-26T05:44:05.201Z,8.81
2022-10-26T05:46:31.552Z,8.64
2022-10-26T05:48:58.243Z,8.76
2022-10-26T05:51:24.638Z,8.81
2022-10-26T05:53:54.250Z,8.85
2022-10-26T05:56:24.467Z,9.03
2022-10-26T05:58:50.890Z,8.97
2022-10-26T06:01:22.205Z,8.91
2022-10-26T06:03:55.773Z,9.07
2022-10-26T06:06:22.593Z,9.01
2022-10-26T06:08:49.193Z,9.04
2022-10-26T06:11:15.651Z,9.06
2022-10-26T06:13:42.319Z,9.06
2022-10-26T06:16:27.666Z,9.10
2022-10-26T06:18:59.651Z,9.14
2022-10-26T06:21:28.232Z,9.16
2022-10-26T06:24:07.049Z,9.23
2022-10-26T06:26:48.617Z,9.26
2022-10-26T06:29:17.934Z,9.26
2022-10-26T06:31:45.083Z,9.23
2022-10-26T06:34:14.354Z,9.10
2022-10-26T06:36:41.562Z,9.16
2022-10-26T06:39:10.298Z,9.27
2022-10-26T06:41:37.132Z,9.21
2022-10-26T06:44:05.016Z,9.32
2022-10-26T06:46:31.863Z,9.35
2022-10-26T06:49:07.495Z,9.41
2022-10-26T06:51:38.938Z,9.44
2022-10-26T06:54:19.941Z,9.48
2022-10-26T06:56:46.732Z,9.52
2022-10-26T06:59:16.122Z,9.52
2022-10-26T07:01:42.647Z,9.50
2022-10-26T07:04:09.293Z,9.63
2022-10-26T07:06:38.419Z,9.62
2022-10-26T07:09:05.920Z,9.82
2022-10-26T07:11:32.421Z,9.81
2022-10-26T07:13:58.811Z,9.86
2022-10-26T07:16:25.145Z,9.90
2022-10-26T07:18:51.545Z,9.86
2022-10-26T07:21:17.880Z,10.02
2022-10-26T07:23:44.278Z,10.12
2022-10-26T07:26:10.597Z,10.19
2022-10-26T07:28:37.099Z,10.24
2022-10-26T07:31:05.539Z,10.28
2022-10-26T07:33:31.856Z,10.37
2022-10-26T07:36:01.406Z,10.47
2022-10-26T07:38:27.793Z,10.73
2022-10-26T07:40:54.759Z,12.07
2022-10-26T07:43:21.255Z,12.21
2022-10-26T07:45:51.529Z,11.99
2022-10-26T07:48:17.976Z,11.90
2022-10-26T07:50:44.341Z,11.71
2022-10-26T07:53:10.650Z,11.78
2022-10-26T07:55:36.993Z,11.88
2022-10-26T07:58:04.423Z,11.99
2022-10-26T08:00:31.023Z,12.04
2022-10-26T08:02:59.469Z,11.88
2022-10-26T08:05:25.922Z,12.19
2022-10-26T08:07:52.666Z,12.72
2022-10-26T08:10:19.255Z,12.98
2022-10-26T08:12:45.573Z,13.09
2022-10-26T08:15:12.011Z,13.82
2022-10-26T08:17:38.430Z,14.06
2022-10-26T08:20:04.985Z,13.78
2022-10-26T08:22:31.428Z,13.45
2022-10-26T08:24:57.943Z,13.41
2022-10-26T08:27:24.294Z,13.22
2022-10-26T08:29:50.719Z,13.20
2022-10-26T08:32:17.032Z,13.02
2022-10-26T08:34:43.351Z,13.04
2022-10-26T08:37:09.672Z,13.05
2022-10-26T08:39:36.044Z,13.08
2022-10-26T08:42:17.064Z,13.04
2022-10-26T08:44:47.786Z,13.03
2022-10-26T08:47:19.597Z,13.15
2022-10-26T08:49:49.097Z,13.05
2022-10-26T08:52:17.574Z,13.13
2022-10-26T08:54:54.413Z,13.24
2022-10-26T08:57:28.585Z,13.26
2022-10-26T09:00:00.475Z,13.13
2022-10-26T09:02:27.893Z,13.22
2022-10-26T09:04:55.138Z,13.37
2022-10-26T09:07:33.508Z,13.27
2022-10-26T09:10:12.024Z,13.20
2022-10-26T09:12:45.181Z,13.24
2022-10-26T09:15:20.744Z,13.35
2022-10-26T09:17:49.805Z,13.60
2022-10-26T09:20:16.206Z,13.60
2022-10-26T09:23:04.631Z,13.79
2022-10-26T09:25:35.032Z,14.30
2022-10-26T09:28:02.560Z,14.96
2022-10-26T09:30:30.332Z,14.90
2022-10-26T09:32:59.260Z,14.98
2022-10-26T09:35:33.222Z,15.05
2022-10-26T09:38:06.431Z,15.66
2022-10-26T09:40:47.888Z,15.29
2022-10-26T09:43:17.372Z,15.37
2022-10-26T09:45:51.335Z,15.87
2022-10-26T09:48:22.523Z,15.43
2022-10-26T09:50:49.734Z,15.08
2022-10-26T09:53:16.225Z,15.76
2022-10-26T09:55:44.560Z,15.48
2022-10-26T09:58:31.700Z,15.23
2022-10-26T10:00:58.026Z,15.04
2022-10-26T10:03:28.306Z,15.12
2022-10-26T10:05:56.409Z,15.47
2022-10-26T10:08:23.917Z,16.49
2022-10-26T10:11:16.706Z,16.52
2022-10-26T10:13:44.779Z,16.18
2022-10-26T10:16:12.815Z,15.85
2022-10-26T10:18:41.710Z,15.80
2022-10-26T10:21:09.007Z,15.84
2022-10-26T10:23:37.249Z,15.81
2022-10-26T10:26:10.912Z,15.77
2022-10-26T10:28:38.224Z,15.64
2022-10-26T10:31:07.100Z,15.86
2022-10-26T10:33:38.581Z,16.52
2022-10-26T10:36:07.711Z,17.13
2022-10-26T10:38:38.032Z,17.53
2022-10-26T10:41:05.037Z,17.80
2022-10-26T10:43:31.589Z,17.87
2022-10-26T10:45:59.726Z,17.66
2022-10-26T10:48:28.011Z,17.88
2022-10-26T10:51:00.278Z,18.14
2022-10-26T10:53:34.746Z,18.14
2022-10-26T10:56:19.715Z,18.10
2022-10-26T10:58:48.790Z,17.89
2022-10-26T11:01:18.358Z,17.74
2022-10-26T11:04:03.672Z,18.08
2022-10-26T11:06:32.460Z,18.44
2022-10-26T11:09:07.969Z,18.20
2022-10-26T11:11:44.657Z,18.12
2022-10-26T11:14:16.957Z,18.62
2022-10-26T11:16:46.352Z,18.41
2022-10-26T11:19:32.980Z,18.31
2022-10-26T11:21:59.320Z,18.22
2022-10-26T11:24:36.600Z,18.31
2022-10-26T11:27:14.952Z,17.59
2022-10-26T11:29:53.494Z,17.79
2022-10-26T11:32:27.021Z,17.96
2022-10-26T11:35:12.599Z,17.76
2022-10-26T11:37:48.152Z,17.66
2022-10-26T11:40:14.487Z,17.56
2022-10-26T11:42:44.477Z,17.75
2022-10-26T11:45:17.829Z,17.85
2022-10-26T11:47:49.015Z,17.93
2022-10-26T11:50:18.948Z,17.92
2022-10-26T11:52:49.294Z,17.69
2022-10-26T11:55:17.103Z,17.46
2022-10-26T11:57:46.560Z,17.46
2022-10-26T12:00:12.870Z,17.45
2022-10-26T12:05:15.266Z,17.37
2022-10-26T12:07:48.500Z,17.31
2022-10-26T12:10:35.285Z,17.50
2022-10-26T12:13:10.668Z,17.35
2022-10-26T12:19:00.798Z,17.25
2022-10-26T12:21:28.885Z,17.11
2022-10-26T12:23:59.411Z,17.08
2022-10-26T12:26:25.900Z,17.19
2022-10-26T12:29:01.290Z,17.21
2022-10-26T12:31:36.849Z,17.57
2022-10-26T12:34:11.465Z,17.44
2022-10-26T12:36:46.736Z,17.34
2022-10-26T12:39:25.176Z,17.46
2022-10-26T12:41:59.387Z,17.55
2022-10-26T12:44:46.021Z,17.27
2022-10-26T12:47:27.793Z,17.35
2022-10-26T12:50:20.293Z,17.44
2022-10-26T12:52:55.893Z,17.54
2022-10-26T12:55:30.753Z,17.43
2022-10-26T12:57:57.027Z,17.45
2022-10-26T13:00:25.157Z,17.34
2022-10-26T13:03:00.403Z,17.31
2022-10-26T13:05:44.842Z,17.25
2022-10-26T13:08:12.492Z,17.21
2022-10-26T13:10:43.253Z,17.23
2022-10-26T13:13:22.259Z,17.24
2022-10-26T13:15:56.099Z,17.32
2022-10-26T13:18:23.009Z,17.38
2022-10-26T13:21:09.194Z,17.53
2022-10-26T13:23:37.777Z,17.54
2022-10-26T13:26:07.012Z,17.37
2022-10-26T13:28:42.689Z,17.20
2022-10-26T13:31:27.899Z,17.34
2022-10-26T13:33:57.745Z,17.11
2022-10-26T13:36:27.070Z,17.27
2022-10-26T13:38:53.997Z,17.25
2022-10-26T13:41:28.341Z,17.17
2022-10-26T13:43:54.777Z,17.54
2022-10-26T13:46:25.160Z,17.50
2022-10-26T13:48:57.550Z,17.51
2022-10-26T13:51:25.543Z,17.03
2022-10-26T13:53:58.932Z,17.11
2022-10-26T13:56:29.665Z,17.26
2022-10-26T13:58:55.963Z,17.09
2022-10-26T14:01:25.008Z,17.16
2022-10-26T14:03:51.622Z,17.17
2022-10-26T14:06:21.583Z,17.06
2022-10-26T14:08:49.484Z,17.13
2022-10-26T14:11:18.017Z,17.04
2022-10-26T14:13:45.843Z,17.18
2022-10-26T14:16:17.411Z,17.17
2022-10-26T14:18:45.001Z,17.09
2022-10-26T14:21:16.180Z,17.12
2022-10-26T14:23:56.182Z,17.17
2022-10-26T14:26:22.526Z,17.05
2022-10-26T14:28:51.028Z,16.99
2022-10-26T14:31:24.813Z,16.90
2022-10-26T14:33:52.071Z,16.97
2022-10-26T14:36:20.043Z,17.13
2022-10-26T14:38:47.956Z,16.92
2022-10-26T14:41:16.899Z,16.90
2022-10-26T14:43:44.143Z,17.02
2022-10-26T14:46:15.560Z,16.92
2022-10-26T14:48:49.888Z,16.78
2022-10-26T14:51:17.329Z,16.59
2022-10-26T14:53:53.827Z,16.69
2022-10-26T14:56:28.884Z,16.85
2022-10-26T14:58:57.411Z,16.78
2022-10-26T15:01:23.975Z,16.98
2022-10-26T15:03:58.207Z,17.00
2022-10-26T15:06:27.673Z,17.08
2022-10-26T15:08:57.496Z,17.07
2022-10-26T15:11:26.968Z,17.08
2022-10-26T15:13:55.370Z,17.01
2022-10-26T15:16:23.228Z,17.07
2022-10-26T15:18:54.607Z,16.93
2022-10-26T15:21:24.962Z,17.00
2022-10-26T15:23:52.251Z,16.85
2022-10-26T15:26:18.992Z,16.82
2022-10-26T15:28:47.097Z,16.80
2022-10-26T15:31:14.563Z,16.79
2022-10-26T15:33:41.817Z,16.50
2022-10-26T15:36:08.123Z,16.47
2022-10-26T15:38:35.015Z,16.41
2022-10-26T15:41:01.385Z,16.40
2022-10-26T15:43:27.712Z,16.34
2022-10-26T15:45:55.103Z,16.32
2022-10-26T15:48:27.121Z,16.26
2022-10-26T15:50:53.448Z,16.16
2022-10-26T15:53:24.167Z,16.10
2022-10-26T15:55:52.427Z,15.87
2022-10-26T15:58:19.953Z,15.86
2022-10-26T16:00:46.380Z,15.69
2022-10-26T16:03:23.181Z,15.60
2022-10-26T16:05:53.220Z,15.58
2022-10-26T16:08:19.687Z,15.63
2022-10-26T16:10:46.501Z,15.58
2022-10-26T16:13:13.602Z,15.60
2022-10-26T16:15:40.219Z,15.43
2022-10-26T16:18:06.599Z,15.45
2022-10-26T16:20:32.997Z,15.40
2022-10-26T16:23:01.648Z,15.37
2022-10-26T16:25:27.996Z,15.38
2022-10-26T16:27:55.045Z,15.41
2022-10-26T16:30:22.371Z,15.29
2022-10-26T16:32:50.474Z,15.40
2022-10-26T16:35:17.062Z,15.46
2022-10-26T16:37:43.674Z,15.46
2022-10-26T16:40:10.234Z,15.52
2022-10-26T16:42:36.631Z,15.57
2022-10-26T16:45:03.727Z,15.49
2022-10-26T16:47:35.358Z,15.44
2022-10-26T16:50:02.057Z,15.50
2022-10-26T16:52:28.388Z,15.41
2022-10-26T16:54:54.951Z,15.43
2022-10-26T16:57:21.254Z,15.47
2022-10-26T16:59:47.577Z,15.38
2022-10-26T17:02:14.752Z,15.43
2022-10-26T17:04:41.169Z,15.44
2022-10-26T17:07:07.495Z,15.44
2022-10-26T17:09:34.089Z,15.37
2022-10-26T17:12:02.134Z,15.26
2022-10-26T17:14:28.788Z,15.28
2022-10-26T17:16:55.150Z,15.25
2022-10-26T17:19:21.473Z,15.22
2022-10-26T17:21:47.788Z,15.19
2022-10-26T17:24:14.265Z,15.15
2022-10-26T17:26:40.712Z,15.18
2022-10-26T17:29:07.131Z,15.15
2022-10-26T17:31:33.559Z,15.08
2022-10-26T17:34:00.111Z,15.05
2022-10-26T17:36:26.528Z,15.07
2022-10-26T17:38:54.103Z,15.01
2022-10-26T17:41:22.353Z,14.99
2022-10-26T17:43:49.280Z,15.01
2022-10-26T17:46:17.073Z,15.01
2022-10-26T17:48:43.675Z,15.08
2022-10-26T17:51:11.884Z,15.02
2022-10-26T17:53:38.207Z,15.02
2022-10-26T17:56:08.504Z,14.99
2022-10-26T17:58:35.291Z,14.97
2022-10-26T18:01:05.984Z,14.97
2022-10-26T18:03:32.463Z,15.02
2022-10-26T18:06:02.378Z,15.03
2022-10-26T18:08:31.963Z,14.95
2022-10-26T18:10:59.100Z,14.99
2022-10-26T18:13:29.153Z,14.96
2022-10-26T18:15:55.481Z,14.95
2022-10-26T18:18:21.809Z,14.99
2022-10-26T18:20:48.119Z,15.05
2022-10-26T18:23:14.449Z,15.09
2022-10-26T18:25:40.796Z,15.07
2022-10-26T18:28:08.178Z,15.02
2022-10-26T18:30:34.558Z,14.98
2022-10-26T18:33:00.922Z,14.94
2022-10-26T18:35:27.305Z,14.90
2022-10-26T18:37:54.082Z,14.87
2022-10-26T18:40:20.758Z,14.92
2022-10-26T18:42:47.107Z,14.93
2022-10-26T18:45:13.536Z,14.92
2022-10-26T18:47:39.906Z,14.92
2022-10-26T18:50:06.477Z,14.87
2022-10-26T18:52:32.792Z,14.85
2022-10-26T18:54:59.113Z,14.85
2022-10-26T18:57:27.014Z,14.82
2022-10-26T18:59:54.866Z,14.80
2022-10-26T19:02:22.884Z,14.83
2022-10-26T19:04:51.537Z,14.73
2022-10-26T19:07:17.888Z,14.83
2022-10-26T19:09:44.203Z,14.82
2022-10-26T19:12:10.511Z,14.87
2022-10-26T19:14:36.833Z,14.82
2022-10-26T19:17:03.660Z,14.86
2022-10-26T19:19:30.024Z,14.82
2022-10-26T19:21:56.434Z,14.78
2022-10-26T19:24:23.331Z,14.72
2022-10-26T19:26:50.541Z,14.73
2022-10-26T19:29:17.469Z,14.64
2022-10-26T19:31:47.447Z,14.62
2022-10-26T19:34:14.732Z,14.44
2022-10-26T19:36:44.798Z,14.28
2022-10-26T19:39:12.303Z,14.26
2022-10-26T19:41:38.621Z,14.20
2022-10-26T19:44:04.985Z,14.18
2022-10-26T19:46:32.756Z,14.15
2022-10-26T19:49:00.315Z,14.18
2022-10-26T19:51:27.672Z,14.07
2022-10-26T19:53:56.762Z,14.04
2022-10-26T19:56:25.628Z,14.02
2022-10-26T19:58:51.940Z,13.99
2022-10-26T20:01:18.754Z,13.98
2022-10-26T20:03:47.942Z,13.99
2022-10-26T20:06:15.470Z,13.94
2022-10-26T20:08:43.010Z,13.87
2022-10-26T20:11:13.147Z,13.78
2022-10-26T20:13:42.743Z,13.72
2022-10-26T20:16:09.388Z,13.62
2022-10-26T20:18:35.841Z,13.50
2022-10-26T20:21:06.572Z,13.57
2022-10-26T20:23:32.913Z,13.49
2022-10-26T20:26:00.405Z,13.54
2022-10-26T20:28:26.836Z,13.50
2022-10-26T20:30:53.142Z,13.44
2022-10-26T20:33:19.446Z,13.44
2022-10-26T20:35:45.827Z,13.41
2022-10-26T20:38:19.557Z,13.38
2022-10-26T20:40:51.055Z,13.27
2022-10-26T20:43:18.638Z,13.16
2022-10-26T20:45:45.158Z,13.06
2022-10-26T20:48:11.858Z,12.97
2022-10-26T20:50:39.845Z,12.91
2022-10-26T20:53:24.073Z,12.96
2022-10-26T20:55:56.592Z,12.78
2022-10-26T20:58:28.783Z,12.89
2022-10-26T21:01:02.228Z,12.94
2022-10-26T21:03:28.555Z,12.96
2022-10-26T21:05:56.001Z,12.96
2022-10-26T21:08:22.334Z,13.00
2022-10-26T21:10:51.851Z,12.98
2022-10-26T21:13:18.292Z,12.83
2022-10-26T21:15:44.844Z,12.88
2022-10-26T21:18:11.181Z,12.86
2022-10-26T21:20:37.563Z,12.69
2022-10-26T21:23:03.887Z,12.77
2022-10-26T21:25:30.197Z,12.75
2022-10-26T21:27:57.904Z,12.62
2022-10-26T21:30:25.030Z,12.71
2022-10-26T21:32:52.223Z,12.61
2022-10-26T21:35:18.653Z,12.56
2022-10-26T21:37:45.236Z,12.56
2022-10-26T21:40:11.828Z,12.55
2022-10-26T21:42:38.200Z,12.44
2022-10-26T21:45:04.755Z,12.41
2022-10-26T21:47:31.872Z,12.34
2022-10-26T21:49:58.202Z,12.39
2022-10-26T21:52:24.694Z,12.40
2022-10-26T21:54:51.012Z,12.30
2022-10-26T21:57:17.319Z,12.36
2022-10-26T21:59:43.708Z,12.32
2022-10-26T22:02:10.150Z,12.19
2022-10-26T22:04:37.361Z,12.27
2022-10-26T22:07:03.696Z,12.02
2022-10-26T22:09:30.024Z,12.14
2022-10-26T22:11:56.384Z,12.06
2022-10-26T22:14:22.786Z,12.08
2022-10-26T22:16:49.201Z,12.04
2022-10-26T22:19:15.673Z,12.03
2022-10-26T22:21:42.059Z,12.00
2022-10-26T22:24:08.809Z,12.01
2022-10-26T22:26:35.908Z,11.94
2022-10-26T22:29:02.482Z,11.90
2022-10-26T22:34:01.957Z,11.93
2022-10-26T22:36:31.287Z,11.88
2022-10-26T22:38:57.650Z,11.85
2022-10-26T22:41:24.228Z,11.80
2022-10-26T22:43:50.940Z,11.80
2022-10-26T22:46:18.748Z,11.68
2022-10-26T22:48:47.877Z,11.67
2022-10-26T22:51:15.580Z,11.51
2022-10-26T22:53:42.366Z,11.48
2022-10-26T22:56:09.928Z,11.41
2022-10-26T22:58:36.860Z,11.34
2022-10-26T23:01:07.476Z,11.33
2022-10-26T23:03:34.446Z,11.31
2022-10-26T23:06:01.251Z,11.19
2022-10-26T23:08:28.043Z,11.26
2022-10-26T23:10:58.116Z,11.18
2022-10-26T23:13:24.474Z,11.22
2022-10-26T23:15:50.783Z,11.25
2022-10-26T23:18:17.255Z,11.19
2022-10-26T23:20:43.611Z,10.98
2022-10-26T23:23:09.935Z,10.83
2022-10-26T23:25:36.263Z,11.08
2022-10-26T23:28:02.577Z,10.94
2022-10-26T23:30:28.924Z,10.97
2022-10-26T23:32:56.143Z,10.96
2022-10-26T23:35:23.099Z,10.93
2022-10-26T23:37:49.752Z,10.90
2022-10-26T23:40:16.161Z,10.94
2022-10-26T23:42:42.472Z,10.98
2022-10-26T23:45:08.973Z,11.01
2022-10-26T23:47:35.291Z,10.93
2022-10-26T23:50:01.599Z,11.01
2022-10-26T23:52:27.916Z,10.99
2022-10-26T23:54:54.321Z,10.96
2022-10-26T23:57:20.999Z,10.89
2022-10-26T23:59:47.317Z,11.01
